sensor_id;sensor_type;location;lat;lon;timestamp;P1;durP1;ratioP1;P2;durP2;ratioP2
58460;SDS011;45558;37.752;-97.822;2022-12-17T00:01:35;70.65;;;32.83;;
58460;SDS011;45558;37.752;-97.822;2022-12-17T00:04:19;57.25;;;29.52;;
58460;SDS011;45558;37.752;-97.822;2022-12-17T00:07:04;89.07;;;40.78;;
58460;SDS011;45558;37.752;-97.822;2022-12-17T00:09:48;79.32;;;40.17;;
58460;SDS011;45558;37.752;-97.822;2022-12-17T00:12:32;72.20;;;37.47;;
58460;SDS011;45558;37.752;-97.822;2022-12-17T00:15:16;71.15;;;33.75;;
58460;SDS011;45558;37.752;-97.822;2022-12-17T00:18:01;50.13;;;26.05;;
58460;SDS011;45558;37.752;-97.822;2022-12-17T00:20:51;51.03;;;24.98;;
58460;SDS011;45558;37.752;-97.822;2022-12-17T00:23:36;32.72;;;16.45;;
58460;SDS011;45558;37.752;-97.822;2022-12-17T00:26:20;43.10;;;20.02;;
58460;SDS011;45558;37.752;-97.822;2022-12-17T00:29:03;43.58;;;15.90;;
58460;SDS011;45558;37.752;-97.822;2022-12-17T00:31:48;56.88;;;21.23;;
58460;SDS011;45558;37.752;-97.822;2022-12-17T00:34:32;87.15;;;38.67;;
58460;SDS011;45558;37.752;-97.822;2022-12-17T00:37:16;36.38;;;18.48;;
58460;SDS011;45558;37.752;-97.822;2022-12-17T00:40:00;11.73;;;5.85;;
58460;SDS011;45558;37.752;-97.822;2022-12-17T00:42:44;13.20;;;6.10;;
58460;SDS011;45558;37.752;-97.822;2022-12-17T00:45:29;13.00;;;6.10;;
58460;SDS011;45558;37.752;-97.822;2022-12-17T00:48:13;10.25;;;4.75;;
58460;SDS011;45558;37.752;-97.822;2022-12-17T00:51:14;10.23;;;4.05;;
58460;SDS011;45558;37.752;-97.822;2022-12-17T00:53:58;9.90;;;3.55;;
58460;SDS011;45558;37.752;-97.822;2022-12-17T00:56:42;13.40;;;3.78;;
58460;SDS011;45558;37.752;-97.822;2022-12-17T00:59:27;7.55;;;3.95;;
58460;SDS011;45558;37.752;-97.822;2022-12-17T01:02:11;9.02;;;5.32;;
58460;SDS011;45558;37.752;-97.822;2022-12-17T01:04:55;9.13;;;4.85;;
58460;SDS011;45558;37.752;-97.822;2022-12-17T01:07:39;8.68;;;4.68;;
58460;SDS011;45558;37.752;-97.822;2022-12-17T01:10:23;7.63;;;2.70;;
58460;SDS011;45558;37.752;-97.822;2022-12-17T01:13:07;6.95;;;1.75;;
58460;SDS011;45558;37.752;-97.822;2022-12-17T01:16:02;7.50;;;2.05;;
58460;SDS011;45558;37.752;-97.822;2022-12-17T01:18:47;8.98;;;2.63;;
58460;SDS011;45558;37.752;-97.822;2022-12-17T01:21:32;11.52;;;3.33;;
58460;SDS011;45558;37.752;-97.822;2022-12-17T01:24:15;22.33;;;10.63;;
58460;SDS011;45558;37.752;-97.822;2022-12-17T01:26:59;11.63;;;5.03;;
58460;SDS011;45558;37.752;-97.822;2022-12-17T01:29:43;13.00;;;4.40;;
58460;SDS011;45558;37.752;-97.822;2022-12-17T01:32:27;8.15;;;3.65;;
58460;SDS011;45558;37.752;-97.822;2022-12-17T01:35:18;5.03;;;1.20;;
58460;SDS011;45558;37.752;-97.822;2022-12-17T01:38:08;3.00;;;1.33;;
58460;SDS011;45558;37.752;-97.822;2022-12-17T01:40:53;4.65;;;1.73;;
58460;SDS011;45558;37.752;-97.822;2022-12-17T01:43:37;5.20;;;2.45;;
58460;SDS011;45558;37.752;-97.822;2022-12-17T01:46:22;9.93;;;3.03;;
58460;SDS011;45558;37.752;-97.822;2022-12-17T01:49:07;6.80;;;2.80;;
58460;SDS011;45558;37.752;-97.822;2022-12-17T01:51:52;4.97;;;2.40;;
58460;SDS011;45558;37.752;-97.822;2022-12-17T01:54:37;10.77;;;3.13;;
58460;SDS011;45558;37.752;-97.822;2022-12-17T01:57:22;3.92;;;1.67;;
58460;SDS011;45558;37.752;-97.822;2022-12-17T02:00:08;2.90;;;1.23;;
58460;SDS011;45558;37.752;-97.822;2022-12-17T02:02:53;5.65;;;1.10;;
58460;SDS011;45558;37.752;-97.822;2022-12-17T02:09:24;2.55;;;1.17;;
58460;SDS011;45558;37.752;-97.822;2022-12-17T02:12:20;3.75;;;1.13;;
58460;SDS011;45558;37.752;-97.822;2022-12-17T02:17:56;3.47;;;1.10;;
58460;SDS011;45558;37.752;-97.822;2022-12-17T02:20:52;3.22;;;0.88;;
58460;SDS011;45558;37.752;-97.822;2022-12-17T02:26:43;4.63;;;0.70;;
58460;SDS011;45558;37.752;-97.822;2022-12-17T02:29:38;1.92;;;0.82;;
58460;SDS011;45558;37.752;-97.822;2022-12-17T02:32:25;2.13;;;1.50;;
58460;SDS011;45558;37.752;-97.822;2022-12-17T02:35:14;3.13;;;0.80;;
58460;SDS011;45558;37.752;-97.822;2022-12-17T02:38:00;8.57;;;0.80;;
58460;SDS011;45558;37.752;-97.822;2022-12-17T02:40:44;5.07;;;1.58;;
58460;SDS011;45558;37.752;-97.822;2022-12-17T02:43:29;2.03;;;0.73;;
58460;SDS011;45558;37.752;-97.822;2022-12-17T02:46:13;2.90;;;0.68;;
58460;SDS011;45558;37.752;-97.822;2022-12-17T02:48:58;3.25;;;0.88;;
58460;SDS011;45558;37.752;-97.822;2022-12-17T02:51:42;2.83;;;1.00;;
58460;SDS011;45558;37.752;-97.822;2022-12-17T02:54:30;5.47;;;1.10;;
58460;SDS011;45558;37.752;-97.822;2022-12-17T02:57:15;1.80;;;0.90;;
58460;SDS011;45558;37.752;-97.822;2022-12-17T02:59:59;2.85;;;0.57;;
58460;SDS011;45558;37.752;-97.822;2022-12-17T03:02:43;7.05;;;2.10;;
58460;SDS011;45558;37.752;-97.822;2022-12-17T03:05:27;7.40;;;1.92;;
58460;SDS011;45558;37.752;-97.822;2022-12-17T03:08:11;5.68;;;2.10;;
58460;SDS011;45558;37.752;-97.822;2022-12-17T03:10:56;2.60;;;1.00;;
58460;SDS011;45558;37.752;-97.822;2022-12-17T03:13:40;3.83;;;1.35;;
58460;SDS011;45558;37.752;-97.822;2022-12-17T03:16:24;4.93;;;1.10;;
58460;SDS011;45558;37.752;-97.822;2022-12-17T03:19:08;6.65;;;1.33;;
58460;SDS011;45558;37.752;-97.822;2022-12-17T03:21:52;4.72;;;1.45;;
58460;SDS011;45558;37.752;-97.822;2022-12-17T03:24:36;7.40;;;1.60;;
58460;SDS011;45558;37.752;-97.822;2022-12-17T03:27:20;2.60;;;1.17;;
58460;SDS011;45558;37.752;-97.822;2022-12-17T03:30:07;9.07;;;1.27;;
58460;SDS011;45558;37.752;-97.822;2022-12-17T03:32:52;2.78;;;0.93;;
58460;SDS011;45558;37.752;-97.822;2022-12-17T03:35:36;3.25;;;0.70;;
58460;SDS011;45558;37.752;-97.822;2022-12-17T03:38:20;6.18;;;1.20;;
58460;SDS011;45558;37.752;-97.822;2022-12-17T03:41:04;4.18;;;0.80;;
58460;SDS011;45558;37.752;-97.822;2022-12-17T03:43:48;1.83;;;0.88;;
58460;SDS011;45558;37.752;-97.822;2022-12-17T03:46:32;5.90;;;1.33;;
58460;SDS011;45558;37.752;-97.822;2022-12-17T03:49:16;3.70;;;1.10;;
58460;SDS011;45558;37.752;-97.822;2022-12-17T03:52:00;3.20;;;0.68;;
58460;SDS011;45558;37.752;-97.822;2022-12-17T03:54:44;4.18;;;1.20;;
58460;SDS011;45558;37.752;-97.822;2022-12-17T03:57:28;10.27;;;3.00;;
58460;SDS011;45558;37.752;-97.822;2022-12-17T04:00:12;4.68;;;2.13;;
58460;SDS011;45558;37.752;-97.822;2022-12-17T04:02:57;4.25;;;2.17;;
58460;SDS011;45558;37.752;-97.822;2022-12-17T04:05:41;6.72;;;2.20;;
58460;SDS011;45558;37.752;-97.822;2022-12-17T04:08:25;10.43;;;2.63;;
58460;SDS011;45558;37.752;-97.822;2022-12-17T04:11:09;12.35;;;4.82;;
58460;SDS011;45558;37.752;-97.822;2022-12-17T04:13:54;18.15;;;7.03;;
58460;SDS011;45558;37.752;-97.822;2022-12-17T04:16:38;5.97;;;2.78;;
58460;SDS011;45558;37.752;-97.822;2022-12-17T04:19:23;7.30;;;2.95;;
58460;SDS011;45558;37.752;-97.822;2022-12-17T04:22:07;11.52;;;3.90;;
58460;SDS011;45558;37.752;-97.822;2022-12-17T04:24:51;5.53;;;2.90;;
58460;SDS011;45558;37.752;-97.822;2022-12-17T04:27:36;9.23;;;4.38;;
58460;SDS011;45558;37.752;-97.822;2022-12-17T04:30:20;6.05;;;3.85;;
58460;SDS011;45558;37.752;-97.822;2022-12-17T04:33:04;9.73;;;3.40;;
58460;SDS011;45558;37.752;-97.822;2022-12-17T04:35:48;8.48;;;4.10;;
58460;SDS011;45558;37.752;-97.822;2022-12-17T04:38:33;11.23;;;5.10;;
58460;SDS011;45558;37.752;-97.822;2022-12-17T04:41:17;11.63;;;4.75;;
58460;SDS011;45558;37.752;-97.822;2022-12-17T04:44:02;6.93;;;2.75;;
58460;SDS011;45558;37.752;-97.822;2022-12-17T04:46:46;4.68;;;1.45;;
58460;SDS011;45558;37.752;-97.822;2022-12-17T04:49:30;2.92;;;1.52;;
58460;SDS011;45558;37.752;-97.822;2022-12-17T04:52:14;7.25;;;2.80;;
58460;SDS011;45558;37.752;-97.822;2022-12-17T04:54:58;29.08;;;12.95;;
58460;SDS011;45558;37.752;-97.822;2022-12-17T04:57:42;25.25;;;9.23;;
58460;SDS011;45558;37.752;-97.822;2022-12-17T05:00:26;5.10;;;2.42;;
58460;SDS011;45558;37.752;-97.822;2022-12-17T05:03:11;4.60;;;1.60;;
58460;SDS011;45558;37.752;-97.822;2022-12-17T05:05:57;2.47;;;1.60;;
58460;SDS011;45558;37.752;-97.822;2022-12-17T05:08:41;3.92;;;1.55;;
58460;SDS011;45558;37.752;-97.822;2022-12-17T05:11:25;6.90;;;2.55;;
58460;SDS011;45558;37.752;-97.822;2022-12-17T05:14:09;5.72;;;2.83;;
58460;SDS011;45558;37.752;-97.822;2022-12-17T05:16:53;6.78;;;2.80;;
58460;SDS011;45558;37.752;-97.822;2022-12-17T05:19:37;3.88;;;2.45;;
58460;SDS011;45558;37.752;-97.822;2022-12-17T05:22:22;9.65;;;3.53;;
58460;SDS011;45558;37.752;-97.822;2022-12-17T05:25:06;8.18;;;2.90;;
58460;SDS011;45558;37.752;-97.822;2022-12-17T05:27:50;2.50;;;1.55;;
58460;SDS011;45558;37.752;-97.822;2022-12-17T05:30:34;4.72;;;1.92;;
58460;SDS011;45558;37.752;-97.822;2022-12-17T05:33:18;4.72;;;2.28;;
58460;SDS011;45558;37.752;-97.822;2022-12-17T05:36:03;3.53;;;3.05;;
58460;SDS011;45558;37.752;-97.822;2022-12-17T05:38:48;7.05;;;2.63;;
58460;SDS011;45558;37.752;-97.822;2022-12-17T05:41:32;6.43;;;2.17;;
58460;SDS011;45558;37.752;-97.822;2022-12-17T05:44:16;4.78;;;2.13;;
58460;SDS011;45558;37.752;-97.822;2022-12-17T05:47:01;3.42;;;1.85;;
58460;SDS011;45558;37.752;-97.822;2022-12-17T05:49:46;10.40;;;2.80;;
58460;SDS011;45558;37.752;-97.822;2022-12-17T05:52:31;6.40;;;2.50;;
58460;SDS011;45558;37.752;-97.822;2022-12-17T05:55:15;6.20;;;2.20;;
58460;SDS011;45558;37.752;-97.822;2022-12-17T05:58:02;9.25;;;3.30;;
58460;SDS011;45558;37.752;-97.822;2022-12-17T06:00:47;6.32;;;3.53;;
58460;SDS011;45558;37.752;-97.822;2022-12-17T06:03:31;10.05;;;3.95;;
58460;SDS011;45558;37.752;-97.822;2022-12-17T06:06:15;9.10;;;4.03;;
58460;SDS011;45558;37.752;-97.822;2022-12-17T06:08:59;8.88;;;3.92;;
58460;SDS011;45558;37.752;-97.822;2022-12-17T06:11:44;8.02;;;4.70;;
58460;SDS011;45558;37.752;-97.822;2022-12-17T06:14:28;7.55;;;4.68;;
58460;SDS011;45558;37.752;-97.822;2022-12-17T06:17:12;12.55;;;4.70;;
58460;SDS011;45558;37.752;-97.822;2022-12-17T06:19:55;8.93;;;5.80;;
58460;SDS011;45558;37.752;-97.822;2022-12-17T06:22:39;11.63;;;5.57;;
58460;SDS011;45558;37.752;-97.822;2022-12-17T06:25:24;12.40;;;5.95;;
58460;SDS011;45558;37.752;-97.822;2022-12-17T06:28:08;8.30;;;5.82;;
58460;SDS011;45558;37.752;-97.822;2022-12-17T06:30:52;12.50;;;5.72;;
58460;SDS011;45558;37.752;-97.822;2022-12-17T06:33:37;9.18;;;5.25;;
58460;SDS011;45558;37.752;-97.822;2022-12-17T06:36:22;12.95;;;5.72;;
58460;SDS011;45558;37.752;-97.822;2022-12-17T06:39:06;12.95;;;5.88;;
58460;SDS011;45558;37.752;-97.822;2022-12-17T06:41:51;10.75;;;5.65;;
58460;SDS011;45558;37.752;-97.822;2022-12-17T06:44:35;8.30;;;6.03;;
58460;SDS011;45558;37.752;-97.822;2022-12-17T06:47:19;11.60;;;5.10;;
58460;SDS011;45558;37.752;-97.822;2022-12-17T06:53:25;10.93;;;5.88;;
58460;SDS011;45558;37.752;-97.822;2022-12-17T06:56:09;14.45;;;6.15;;
58460;SDS011;45558;37.752;-97.822;2022-12-17T06:58:53;8.90;;;5.57;;
58460;SDS011;45558;37.752;-97.822;2022-12-17T07:01:37;10.45;;;5.55;;
58460;SDS011;45558;37.752;-97.822;2022-12-17T07:04:21;12.55;;;6.28;;
58460;SDS011;45558;37.752;-97.822;2022-12-17T07:07:06;10.32;;;5.80;;
58460;SDS011;45558;37.752;-97.822;2022-12-17T07:09:49;10.63;;;5.45;;
58460;SDS011;45558;37.752;-97.822;2022-12-17T07:12:34;12.32;;;5.40;;
58460;SDS011;45558;37.752;-97.822;2022-12-17T07:15:18;8.25;;;4.95;;
58460;SDS011;45558;37.752;-97.822;2022-12-17T07:18:02;8.65;;;4.43;;
58460;SDS011;45558;37.752;-97.822;2022-12-17T07:20:47;10.10;;;5.18;;
58460;SDS011;45558;37.752;-97.822;2022-12-17T07:23:32;10.18;;;4.55;;
58460;SDS011;45558;37.752;-97.822;2022-12-17T07:26:16;11.40;;;5.55;;
58460;SDS011;45558;37.752;-97.822;2022-12-17T07:29:00;9.77;;;4.78;;
58460;SDS011;45558;37.752;-97.822;2022-12-17T07:31:44;8.20;;;5.30;;
58460;SDS011;45558;37.752;-97.822;2022-12-17T07:34:28;10.65;;;4.95;;
58460;SDS011;45558;37.752;-97.822;2022-12-17T07:37:29;7.90;;;4.38;;
58460;SDS011;45558;37.752;-97.822;2022-12-17T07:40:13;10.35;;;5.80;;
58460;SDS011;45558;37.752;-97.822;2022-12-17T07:42:57;15.13;;;6.65;;
58460;SDS011;45558;37.752;-97.822;2022-12-17T07:45:41;10.07;;;5.32;;
58460;SDS011;45558;37.752;-97.822;2022-12-17T07:48:25;11.43;;;3.92;;
58460;SDS011;45558;37.752;-97.822;2022-12-17T07:51:09;13.07;;;5.18;;
58460;SDS011;45558;37.752;-97.822;2022-12-17T07:53:53;11.98;;;6.47;;
58460;SDS011;45558;37.752;-97.822;2022-12-17T07:56:37;9.55;;;5.78;;
58460;SDS011;45558;37.752;-97.822;2022-12-17T07:59:21;13.65;;;6.75;;
58460;SDS011;45558;37.752;-97.822;2022-12-17T08:02:05;12.43;;;5.22;;
58460;SDS011;45558;37.752;-97.822;2022-12-17T08:04:51;15.05;;;5.45;;
58460;SDS011;45558;37.752;-97.822;2022-12-17T08:07:35;15.32;;;7.80;;
58460;SDS011;45558;37.752;-97.822;2022-12-17T08:10:19;10.40;;;5.43;;
58460;SDS011;45558;37.752;-97.822;2022-12-17T08:13:04;22.40;;;8.63;;
58460;SDS011;45558;37.752;-97.822;2022-12-17T08:15:50;13.25;;;6.55;;
58460;SDS011;45558;37.752;-97.822;2022-12-17T08:18:35;16.77;;;6.03;;
58460;SDS011;45558;37.752;-97.822;2022-12-17T08:21:20;20.08;;;7.35;;
58460;SDS011;45558;37.752;-97.822;2022-12-17T08:24:05;11.15;;;6.70;;
58460;SDS011;45558;37.752;-97.822;2022-12-17T08:26:49;13.43;;;7.30;;
58460;SDS011;45558;37.752;-97.822;2022-12-17T08:29:33;18.30;;;9.80;;
58460;SDS011;45558;37.752;-97.822;2022-12-17T08:32:18;17.85;;;8.32;;
58460;SDS011;45558;37.752;-97.822;2022-12-17T08:35:02;204.82;;;75.95;;
58460;SDS011;45558;37.752;-97.822;2022-12-17T08:37:46;70.63;;;26.90;;
58460;SDS011;45558;37.752;-97.822;2022-12-17T08:40:31;64.53;;;25.60;;
58460;SDS011;45558;37.752;-97.822;2022-12-17T08:43:16;92.82;;;38.30;;
58460;SDS011;45558;37.752;-97.822;2022-12-17T08:46:00;229.75;;;103.32;;
58460;SDS011;45558;37.752;-97.822;2022-12-17T08:48:44;288.25;;;86.25;;
58460;SDS011;45558;37.752;-97.822;2022-12-17T08:51:28;101.55;;;40.25;;
58460;SDS011;45558;37.752;-97.822;2022-12-17T08:54:13;203.50;;;76.50;;
58460;SDS011;45558;37.752;-97.822;2022-12-17T08:56:57;28.50;;;14.85;;
58460;SDS011;45558;37.752;-97.822;2022-12-17T08:59:41;34.05;;;16.85;;
58460;SDS011;45558;37.752;-97.822;2022-12-17T09:02:26;24.88;;;13.30;;
58460;SDS011;45558;37.752;-97.822;2022-12-17T09:05:09;18.02;;;11.00;;
58460;SDS011;45558;37.752;-97.822;2022-12-17T09:08:00;28.13;;;16.17;;
58460;SDS011;45558;37.752;-97.822;2022-12-17T09:10:45;35.33;;;19.02;;
58460;SDS011;45558;37.752;-97.822;2022-12-17T09:13:29;25.20;;;16.80;;
58460;SDS011;45558;37.752;-97.822;2022-12-17T09:16:13;41.75;;;19.50;;
58460;SDS011;45558;37.752;-97.822;2022-12-17T09:18:57;43.10;;;19.73;;
58460;SDS011;45558;37.752;-97.822;2022-12-17T09:21:41;39.22;;;19.48;;
58460;SDS011;45558;37.752;-97.822;2022-12-17T09:24:25;17.95;;;8.43;;
58460;SDS011;45558;37.752;-97.822;2022-12-17T09:27:10;17.50;;;9.25;;
58460;SDS011;45558;37.752;-97.822;2022-12-17T09:29:54;22.65;;;10.10;;
58460;SDS011;45558;37.752;-97.822;2022-12-17T09:32:38;12.00;;;5.47;;
58460;SDS011;45558;37.752;-97.822;2022-12-17T09:35:22;14.18;;;7.53;;
58460;SDS011;45558;37.752;-97.822;2022-12-17T09:38:07;33.92;;;14.38;;
58460;SDS011;45558;37.752;-97.822;2022-12-17T09:40:59;63.67;;;24.08;;
58460;SDS011;45558;37.752;-97.822;2022-12-17T09:47:01;32.80;;;17.02;;
58460;SDS011;45558;37.752;-97.822;2022-12-17T09:49:49;29.73;;;15.63;;
58460;SDS011;45558;37.752;-97.822;2022-12-17T09:52:40;24.75;;;11.88;;
58460;SDS011;45558;37.752;-97.822;2022-12-17T09:55:26;22.95;;;11.27;;
58460;SDS011;45558;37.752;-97.822;2022-12-17T10:01:04;10.70;;;4.85;;
58460;SDS011;45558;37.752;-97.822;2022-12-17T10:03:49;7.03;;;4.63;;
58460;SDS011;45558;37.752;-97.822;2022-12-17T10:06:33;13.98;;;7.57;;
58460;SDS011;45558;37.752;-97.822;2022-12-17T10:09:25;10.00;;;4.65;;
58460;SDS011;45558;37.752;-97.822;2022-12-17T10:12:14;7.85;;;4.18;;
58460;SDS011;45558;37.752;-97.822;2022-12-17T10:15:00;5.90;;;3.72;;
58460;SDS011;45558;37.752;-97.822;2022-12-17T10:17:44;12.57;;;4.90;;
58460;SDS011;45558;37.752;-97.822;2022-12-17T10:20:30;7.72;;;3.58;;
58460;SDS011;45558;37.752;-97.822;2022-12-17T10:23:24;8.98;;;4.70;;
58460;SDS011;45558;37.752;-97.822;2022-12-17T10:26:13;12.52;;;7.40;;
58460;SDS011;45558;37.752;-97.822;2022-12-17T10:29:01;23.80;;;10.20;;
58460;SDS011;45558;37.752;-97.822;2022-12-17T10:31:49;10.68;;;6.13;;
58460;SDS011;45558;37.752;-97.822;2022-12-17T10:34:34;18.73;;;8.25;;
58460;SDS011;45558;37.752;-97.822;2022-12-17T10:37:19;17.77;;;7.65;;
58460;SDS011;45558;37.752;-97.822;2022-12-17T10:40:10;9.15;;;5.30;;
58460;SDS011;45558;37.752;-97.822;2022-12-17T10:43:20;10.93;;;6.68;;
58460;SDS011;45558;37.752;-97.822;2022-12-17T10:46:09;16.63;;;8.38;;
58460;SDS011;45558;37.752;-97.822;2022-12-17T10:55:19;31.67;;;13.65;;
58460;SDS011;45558;37.752;-97.822;2022-12-17T10:58:13;23.98;;;11.57;;
58460;SDS011;45558;37.752;-97.822;2022-12-17T11:00:59;26.52;;;13.07;;
58460;SDS011;45558;37.752;-97.822;2022-12-17T11:03:57;16.75;;;10.07;;
58460;SDS011;45558;37.752;-97.822;2022-12-17T11:06:50;12.65;;;7.30;;
58460;SDS011;45558;37.752;-97.822;2022-12-17T11:09:40;10.18;;;6.25;;
58460;SDS011;45558;37.752;-97.822;2022-12-17T11:12:51;12.85;;;6.65;;
58460;SDS011;45558;37.752;-97.822;2022-12-17T11:15:57;39.38;;;19.85;;
58460;SDS011;45558;37.752;-97.822;2022-12-17T11:21:44;40.75;;;18.02;;
58460;SDS011;45558;37.752;-97.822;2022-12-17T11:24:38;27.80;;;14.30;;
58460;SDS011;45558;37.752;-97.822;2022-12-17T11:27:26;23.00;;;12.23;;
58460;SDS011;45558;37.752;-97.822;2022-12-17T11:30:14;14.13;;;8.25;;
58460;SDS011;45558;37.752;-97.822;2022-12-17T11:33:01;14.43;;;6.00;;
58460;SDS011;45558;37.752;-97.822;2022-12-17T11:39:07;15.73;;;9.00;;
58460;SDS011;45558;37.752;-97.822;2022-12-17T11:41:58;9.10;;;6.22;;
58460;SDS011;45558;37.752;-97.822;2022-12-17T11:45:25;20.77;;;12.50;;
58460;SDS011;45558;37.752;-97.822;2022-12-17T11:48:22;22.35;;;10.63;;
58460;SDS011;45558;37.752;-97.822;2022-12-17T11:54:35;31.00;;;13.85;;
58460;SDS011;45558;37.752;-97.822;2022-12-17T12:00:37;26.50;;;14.07;;
58460;SDS011;45558;37.752;-97.822;2022-12-17T12:03:30;40.92;;;20.50;;
58460;SDS011;45558;37.752;-97.822;2022-12-17T12:06:32;31.85;;;15.32;;
58460;SDS011;45558;37.752;-97.822;2022-12-17T12:15:16;40.03;;;17.83;;
58460;SDS011;45558;37.752;-97.822;2022-12-17T12:18:40;16.58;;;7.90;;
58460;SDS011;45558;37.752;-97.822;2022-12-17T12:21:41;10.43;;;5.40;;
58460;SDS011;45558;37.752;-97.822;2022-12-17T12:24:53;10.20;;;4.80;;
58460;SDS011;45558;37.752;-97.822;2022-12-17T12:27:48;10.35;;;5.57;;
58460;SDS011;45558;37.752;-97.822;2022-12-17T12:30:41;8.07;;;5.25;;
58460;SDS011;45558;37.752;-97.822;2022-12-17T12:36:38;23.58;;;10.55;;
58460;SDS011;45558;37.752;-97.822;2022-12-17T12:39:29;12.63;;;5.93;;
58460;SDS011;45558;37.752;-97.822;2022-12-17T12:42:41;13.10;;;7.33;;
58460;SDS011;45558;37.752;-97.822;2022-12-17T12:45:34;9.93;;;4.18;;
58460;SDS011;45558;37.752;-97.822;2022-12-17T12:51:29;28.45;;;15.50;;
58460;SDS011;45558;37.752;-97.822;2022-12-17T12:57:03;25.13;;;12.13;;
58460;SDS011;45558;37.752;-97.822;2022-12-17T12:59:48;25.10;;;12.73;;
58460;SDS011;45558;37.752;-97.822;2022-12-17T13:02:32;19.58;;;9.10;;
58460;SDS011;45558;37.752;-97.822;2022-12-17T13:05:27;24.40;;;13.40;;
58460;SDS011;45558;37.752;-97.822;2022-12-17T13:10:47;7.10;;;5.38;;
58460;SDS011;45558;37.752;-97.822;2022-12-17T13:13:34;3.80;;;2.53;;
58460;SDS011;45558;37.752;-97.822;2022-12-17T13:16:16;11.18;;;4.15;;
58460;SDS011;45558;37.752;-97.822;2022-12-17T13:18:59;4.93;;;4.32;;
58460;SDS011;45558;37.752;-97.822;2022-12-17T13:21:26;10.48;;;5.32;;
58460;SDS011;45558;37.752;-97.822;2022-12-17T13:23:55;8.63;;;4.78;;
58460;SDS011;45558;37.752;-97.822;2022-12-17T13:31:53;6.35;;;3.53;;
58460;SDS011;45558;37.752;-97.822;2022-12-17T13:34:41;9.27;;;5.88;;
58460;SDS011;45558;37.752;-97.822;2022-12-17T13:39:53;7.00;;;3.53;;
58460;SDS011;45558;37.752;-97.822;2022-12-17T13:42:54;9.90;;;5.05;;
58460;SDS011;45558;37.752;-97.822;2022-12-17T13:45:21;4.78;;;3.95;;
58460;SDS011;45558;37.752;-97.822;2022-12-17T13:47:52;7.45;;;4.38;;
58460;SDS011;45558;37.752;-97.822;2022-12-17T13:50:20;6.57;;;5.03;;
58460;SDS011;45558;37.752;-97.822;2022-12-17T13:52:48;9.45;;;5.68;;
58460;SDS011;45558;37.752;-97.822;2022-12-17T13:55:22;17.45;;;7.85;;
58460;SDS011;45558;37.752;-97.822;2022-12-17T13:57:50;11.57;;;5.10;;
58460;SDS011;45558;37.752;-97.822;2022-12-17T14:00:22;5.10;;;3.20;;
58460;SDS011;45558;37.752;-97.822;2022-12-17T14:02:54;1.25;;;0.68;;
58460;SDS011;45558;37.752;-97.822;2022-12-17T14:05:28;3.22;;;1.20;;
58460;SDS011;45558;37.752;-97.822;2022-12-17T14:07:57;13.23;;;6.60;;
58460;SDS011;45558;37.752;-97.822;2022-12-17T14:10:27;62.13;;;32.20;;
58460;SDS011;45558;37.752;-97.822;2022-12-17T14:13:26;24.73;;;15.38;;
58460;SDS011;45558;37.752;-97.822;2022-12-17T14:15:48;45.90;;;19.30;;
58460;SDS011;45558;37.752;-97.822;2022-12-17T14:18:16;34.13;;;17.05;;
58460;SDS011;45558;37.752;-97.822;2022-12-17T14:20:43;30.45;;;16.67;;
58460;SDS011;45558;37.752;-97.822;2022-12-17T14:23:29;17.67;;;11.15;;
58460;SDS011;45558;37.752;-97.822;2022-12-17T14:25:57;33.17;;;18.83;;
58460;SDS011;45558;37.752;-97.822;2022-12-17T14:28:28;15.20;;;7.40;;
58460;SDS011;45558;37.752;-97.822;2022-12-17T14:31:14;43.13;;;29.13;;
58460;SDS011;45558;37.752;-97.822;2022-12-17T14:33:43;54.28;;;20.08;;
58460;SDS011;45558;37.752;-97.822;2022-12-17T14:36:18;36.33;;;15.77;;
58460;SDS011;45558;37.752;-97.822;2022-12-17T14:38:59;20.13;;;11.25;;
58460;SDS011;45558;37.752;-97.822;2022-12-17T14:41:27;27.08;;;13.73;;
58460;SDS011;45558;37.752;-97.822;2022-12-17T14:44:16;48.83;;;22.50;;
58460;SDS011;45558;37.752;-97.822;2022-12-17T14:46:45;59.28;;;24.42;;
58460;SDS011;45558;37.752;-97.822;2022-12-17T14:49:16;53.08;;;24.95;;
58460;SDS011;45558;37.752;-97.822;2022-12-17T14:51:43;37.88;;;19.25;;
58460;SDS011;45558;37.752;-97.822;2022-12-17T14:56:38;23.23;;;11.57;;
58460;SDS011;45558;37.752;-97.822;2022-12-17T15:04:34;19.08;;;8.32;;
58460;SDS011;45558;37.752;-97.822;2022-12-17T15:07:01;23.63;;;16.98;;
58460;SDS011;45558;37.752;-97.822;2022-12-17T15:09:28;26.35;;;15.80;;
58460;SDS011;45558;37.752;-97.822;2022-12-17T15:11:54;24.33;;;15.20;;
58460;SDS011;45558;37.752;-97.822;2022-12-17T15:14:21;27.95;;;15.38;;
58460;SDS011;45558;37.752;-97.822;2022-12-17T15:16:47;38.47;;;22.52;;
58460;SDS011;45558;37.752;-97.822;2022-12-17T15:19:14;45.75;;;23.38;;
58460;SDS011;45558;37.752;-97.822;2022-12-17T15:21:40;53.90;;;28.48;;
58460;SDS011;45558;37.752;-97.822;2022-12-17T15:24:08;39.17;;;22.20;;
58460;SDS011;45558;37.752;-97.822;2022-12-17T15:26:36;69.05;;;38.33;;
58460;SDS011;45558;37.752;-97.822;2022-12-17T15:29:01;60.25;;;32.60;;
58460;SDS011;45558;37.752;-97.822;2022-12-17T15:31:27;14.88;;;9.18;;
58460;SDS011;45558;37.752;-97.822;2022-12-17T15:33:53;25.88;;;14.93;;
58460;SDS011;45558;37.752;-97.822;2022-12-17T15:36:20;18.08;;;12.73;;
58460;SDS011;45558;37.752;-97.822;2022-12-17T15:38:46;47.72;;;22.75;;
58460;SDS011;45558;37.752;-97.822;2022-12-17T15:41:11;42.63;;;20.17;;
58460;SDS011;45558;37.752;-97.822;2022-12-17T15:43:55;45.70;;;20.33;;
58460;SDS011;45558;37.752;-97.822;2022-12-17T15:46:21;112.65;;;59.30;;
58460;SDS011;45558;37.752;-97.822;2022-12-17T15:48:47;130.65;;;57.20;;
58460;SDS011;45558;37.752;-97.822;2022-12-17T15:51:13;204.77;;;106.97;;
58460;SDS011;45558;37.752;-97.822;2022-12-17T15:53:38;73.75;;;33.35;;
58460;SDS011;45558;37.752;-97.822;2022-12-17T15:56:04;95.35;;;45.75;;
58460;SDS011;45558;37.752;-97.822;2022-12-17T15:58:44;88.75;;;39.63;;
58460;SDS011;45558;37.752;-97.822;2022-12-17T16:01:10;110.85;;;50.40;;
58460;SDS011;45558;37.752;-97.822;2022-12-17T16:03:35;60.35;;;27.58;;
58460;SDS011;45558;37.752;-97.822;2022-12-17T16:06:02;51.60;;;25.42;;
58460;SDS011;45558;37.752;-97.822;2022-12-17T16:08:28;50.80;;;24.13;;
58460;SDS011;45558;37.752;-97.822;2022-12-17T16:10:53;45.50;;;23.25;;
58460;SDS011;45558;37.752;-97.822;2022-12-17T16:13:19;40.30;;;22.63;;
58460;SDS011;45558;37.752;-97.822;2022-12-17T16:15:45;35.67;;;22.30;;
58460;SDS011;45558;37.752;-97.822;2022-12-17T16:18:10;45.50;;;25.00;;
58460;SDS011;45558;37.752;-97.822;2022-12-17T16:20:36;43.30;;;18.65;;
58460;SDS011;45558;37.752;-97.822;2022-12-17T16:23:02;35.25;;;18.13;;
58460;SDS011;45558;37.752;-97.822;2022-12-17T16:25:27;45.88;;;27.48;;
58460;SDS011;45558;37.752;-97.822;2022-12-17T16:27:53;32.45;;;16.33;;
58460;SDS011;45558;37.752;-97.822;2022-12-17T16:30:19;31.77;;;19.33;;
58460;SDS011;45558;37.752;-97.822;2022-12-17T16:32:45;35.60;;;18.80;;
58460;SDS011;45558;37.752;-97.822;2022-12-17T16:35:10;39.15;;;19.40;;
58460;SDS011;45558;37.752;-97.822;2022-12-17T16:37:36;40.13;;;20.30;;
58460;SDS011;45558;37.752;-97.822;2022-12-17T16:40:02;35.03;;;18.45;;
58460;SDS011;45558;37.752;-97.822;2022-12-17T16:42:28;43.50;;;22.85;;
58460;SDS011;45558;37.752;-97.822;2022-12-17T16:44:54;43.92;;;21.48;;
58460;SDS011;45558;37.752;-97.822;2022-12-17T16:47:20;26.60;;;14.07;;
58460;SDS011;45558;37.752;-97.822;2022-12-17T16:49:48;62.13;;;21.40;;